Terminal Aerodrome Forecast
Issued by NWS Pueblo, CO

Home | Current Version | Previous Version | Text Only | Print | Product List | Glossary On
Versions: 1 2 3 4 5 6 7 8 9 10 11 12 13 14 15 16 17 18 19 20 21 22 23 24 25
000
FTUS45 KPUB 282320
TAFCOS
TAF
KCOS 282320Z 2900/2924 04013KT P6SM VCSH SCT030 OVC060
      TEMPO 2900/2902 5SM -SHRASN SCT015 OVC030
     FM290200 03020G30KT 1SM -SN BR OVC010
     FM291000 01024G34KT 2SM -SN BR SCT010 OVC020
     FM291600 35022G32KT 3SM -SN SCT015 OVC030=

USA.gov is the U.S. government's official web portal to all federal, state and local government web resources and services.